sensor_id;sensor_type;location;lat;lon;timestamp;noise_LAeq;noise_LA_min;noise_LA_max;noise_LA01;noise_LA95
1754;Laerm;58380;48.312;9.246;2023-05-07T07:51:46;43.80;34.93;53.85;;
1754;Laerm;58380;48.312;9.246;2023-05-07T07:54:12;44.40;32.82;53.34;;
1754;Laerm;58380;48.312;9.246;2023-05-07T07:56:37;46.16;32.91;66.71;;
1754;Laerm;58380;48.312;9.246;2023-05-07T07:59:03;48.15;33.96;70.40;;
1754;Laerm;58380;48.312;9.246;2023-05-07T08:01:30;45.80;34.76;58.77;;
1754;Laerm;58380;48.312;9.246;2023-05-07T08:03:56;47.77;36.30;66.27;;
1754;Laerm;58380;48.312;9.246;2023-05-07T08:06:24;46.24;35.16;58.38;;
1754;Laerm;58380;48.312;9.246;2023-05-07T08:08:49;46.91;40.74;59.91;;
1754;Laerm;58380;48.312;9.246;2023-05-07T08:11:14;46.13;37.62;59.45;;
1754;Laerm;58380;48.312;9.246;2023-05-07T08:13:40;45.54;37.54;57.67;;
1754;Laerm;58380;48.312;9.246;2023-05-07T08:16:05;44.88;35.19;55.43;;
1754;Laerm;58380;48.312;9.246;2023-05-07T08:18:31;46.27;34.76;60.87;;
1754;Laerm;58380;48.312;9.246;2023-05-07T08:20:56;45.57;36.71;59.67;;
1754;Laerm;58380;48.312;9.246;2023-05-07T08:23:22;45.00;38.33;56.68;;
1754;Laerm;58380;48.312;9.246;2023-05-07T08:25:49;45.61;35.93;57.60;;
1754;Laerm;58380;48.312;9.246;2023-05-07T08:28:14;44.28;36.16;56.56;;
1754;Laerm;58380;48.312;9.246;2023-05-07T08:30:40;44.59;35.60;56.10;;
1754;Laerm;58380;48.312;9.246;2023-05-07T08:33:06;46.87;38.38;63.36;;
1754;Laerm;58380;48.312;9.246;2023-05-07T08:35:31;47.44;36.25;63.87;;
1754;Laerm;58380;48.312;9.246;2023-05-07T08:37:57;44.81;36.15;55.15;;
1754;Laerm;58380;48.312;9.246;2023-05-07T08:40:26;45.76;36.56;59.22;;
1754;Laerm;58380;48.312;9.246;2023-05-07T08:42:53;46.10;38.02;64.48;;
1754;Laerm;58380;48.312;9.246;2023-05-07T08:45:20;46.79;36.28;61.82;;
1754;Laerm;58380;48.312;9.246;2023-05-07T08:47:58;46.54;34.67;63.24;;
1754;Laerm;58380;48.312;9.246;2023-05-07T08:50:24;46.47;36.77;64.30;;
1754;Laerm;58380;48.312;9.246;2023-05-07T08:52:50;45.67;36.67;60.19;;
1754;Laerm;58380;48.312;9.246;2023-05-07T08:55:16;43.77;35.05;59.54;;
1754;Laerm;58380;48.312;9.246;2023-05-07T08:57:42;44.10;36.47;51.86;;
1754;Laerm;58380;48.312;9.246;2023-05-07T09:00:08;45.71;33.50;58.58;;
1754;Laerm;58380;48.312;9.246;2023-05-07T09:02:36;45.45;36.08;59.56;;
1754;Laerm;58380;48.312;9.246;2023-05-07T09:05:02;57.78;37.07;77.98;;
1754;Laerm;58380;48.312;9.246;2023-05-07T09:07:28;53.68;38.71;65.73;;
1754;Laerm;58380;48.312;9.246;2023-05-07T09:09:55;45.54;37.05;65.43;;
1754;Laerm;58380;48.312;9.246;2023-05-07T09:12:22;44.49;36.14;59.16;;
1754;Laerm;58380;48.312;9.246;2023-05-07T09:14:48;43.89;34.76;55.47;;
1754;Laerm;58380;48.312;9.246;2023-05-07T09:17:17;42.52;34.48;57.04;;
1754;Laerm;58380;48.312;9.246;2023-05-07T09:19:44;45.95;36.88;54.89;;
1754;Laerm;58380;48.312;9.246;2023-05-07T09:22:13;46.61;36.53;59.49;;
1754;Laerm;58380;48.312;9.246;2023-05-07T09:24:39;45.75;36.04;61.22;;
1754;Laerm;58380;48.312;9.246;2023-05-07T09:27:06;48.46;35.63;61.03;;
1754;Laerm;58380;48.312;9.246;2023-05-07T09:29:32;47.82;38.19;59.32;;
1754;Laerm;58380;48.312;9.246;2023-05-07T09:32:05;45.04;35.02;60.50;;
1754;Laerm;58380;48.312;9.246;2023-05-07T09:34:31;56.70;36.50;76.37;;
1754;Laerm;58380;48.312;9.246;2023-05-07T09:37:00;44.48;36.96;56.31;;
1754;Laerm;58380;48.312;9.246;2023-05-07T09:39:26;48.46;35.82;63.05;;
1754;Laerm;58380;48.312;9.246;2023-05-07T09:41:51;47.58;36.00;60.44;;
1754;Laerm;58380;48.312;9.246;2023-05-07T09:44:21;45.43;37.62;57.65;;
1754;Laerm;58380;48.312;9.246;2023-05-07T09:46:54;43.85;35.36;59.50;;
1754;Laerm;58380;48.312;9.246;2023-05-07T09:49:23;44.95;37.52;57.44;;
1754;Laerm;58380;48.312;9.246;2023-05-07T09:51:52;46.28;36.36;61.15;;
1754;Laerm;58380;48.312;9.246;2023-05-07T09:54:18;48.21;35.50;63.52;;
1754;Laerm;58380;48.312;9.246;2023-05-07T09:56:44;48.17;36.44;61.99;;
1754;Laerm;58380;48.312;9.246;2023-05-07T09:59:15;46.78;38.01;68.79;;
1754;Laerm;58380;48.312;9.246;2023-05-07T10:01:43;47.39;36.89;71.43;;
1754;Laerm;58380;48.312;9.246;2023-05-07T10:04:11;49.42;37.57;70.61;;
1754;Laerm;58380;48.312;9.246;2023-05-07T10:06:37;45.47;38.37;57.33;;
1754;Laerm;58380;48.312;9.246;2023-05-07T10:09:04;43.07;35.31;55.74;;
1754;Laerm;58380;48.312;9.246;2023-05-07T10:11:33;44.49;35.15;56.85;;
1754;Laerm;58380;48.312;9.246;2023-05-07T10:13:59;43.82;36.56;52.85;;
1754;Laerm;58380;48.312;9.246;2023-05-07T10:16:30;46.25;36.91;61.48;;
1754;Laerm;58380;48.312;9.246;2023-05-07T10:18:58;45.20;34.23;58.74;;
1754;Laerm;58380;48.312;9.246;2023-05-07T10:21:27;46.20;36.95;55.45;;
1754;Laerm;58380;48.312;9.246;2023-05-07T10:24:22;43.82;35.16;53.40;;
1754;Laerm;58380;48.312;9.246;2023-05-07T10:26:52;48.44;37.20;59.18;;
1754;Laerm;58380;48.312;9.246;2023-05-07T10:29:47;44.76;35.54;54.09;;
1754;Laerm;58380;48.312;9.246;2023-05-07T10:32:43;44.65;37.96;56.42;;
1754;Laerm;58380;48.312;9.246;2023-05-07T10:35:19;43.84;37.62;56.28;;
1754;Laerm;58380;48.312;9.246;2023-05-07T10:37:46;46.51;37.33;65.42;;
1754;Laerm;58380;48.312;9.246;2023-05-07T10:40:13;43.54;36.09;53.08;;
1754;Laerm;58380;48.312;9.246;2023-05-07T10:43:00;45.33;37.61;54.83;;
1754;Laerm;58380;48.312;9.246;2023-05-07T10:45:27;45.47;38.95;54.98;;
1754;Laerm;58380;48.312;9.246;2023-05-07T10:48:13;45.12;36.11;60.38;;
1754;Laerm;58380;48.312;9.246;2023-05-07T10:50:43;46.02;38.14;56.37;;
1754;Laerm;58380;48.312;9.246;2023-05-07T10:55:48;54.86;39.00;87.42;;
1754;Laerm;58380;48.312;9.246;2023-05-07T10:58:25;45.94;39.28;60.59;;
1754;Laerm;58380;48.312;9.246;2023-05-07T11:01:01;43.40;35.84;58.45;;
1754;Laerm;58380;48.312;9.246;2023-05-07T11:03:28;43.78;35.84;58.36;;
1754;Laerm;58380;48.312;9.246;2023-05-07T11:06:12;46.05;37.78;56.07;;
1754;Laerm;58380;48.312;9.246;2023-05-07T11:09:04;46.11;37.91;56.42;;
1754;Laerm;58380;48.312;9.246;2023-05-07T11:11:47;45.52;35.91;53.07;;
1754;Laerm;58380;48.312;9.246;2023-05-07T11:14:14;51.50;39.50;82.16;;
1754;Laerm;58380;48.312;9.246;2023-05-07T11:17:03;53.91;37.71;88.29;;
1754;Laerm;58380;48.312;9.246;2023-05-07T11:19:51;47.21;39.46;73.82;;
1754;Laerm;58380;48.312;9.246;2023-05-07T11:25:03;47.05;40.44;62.13;;
1754;Laerm;58380;48.312;9.246;2023-05-07T11:27:29;45.05;38.80;56.93;;
1754;Laerm;58380;48.312;9.246;2023-05-07T11:29:55;46.55;38.52;63.19;;
1754;Laerm;58380;48.312;9.246;2023-05-07T11:32:28;45.33;35.69;59.55;;
1754;Laerm;58380;48.312;9.246;2023-05-07T11:34:55;44.11;34.36;55.94;;
1754;Laerm;58380;48.312;9.246;2023-05-07T11:37:23;46.14;37.94;57.03;;
1754;Laerm;58380;48.312;9.246;2023-05-07T11:39:50;46.14;37.45;57.34;;
1754;Laerm;58380;48.312;9.246;2023-05-07T11:42:32;49.87;37.50;63.10;;
1754;Laerm;58380;48.312;9.246;2023-05-07T11:44:58;57.18;37.29;73.41;;
1754;Laerm;58380;48.312;9.246;2023-05-07T11:47:24;44.35;34.06;59.24;;
1754;Laerm;58380;48.312;9.246;2023-05-07T11:49:54;45.54;35.69;59.39;;
1754;Laerm;58380;48.312;9.246;2023-05-07T11:52:22;44.99;36.46;58.32;;
1754;Laerm;58380;48.312;9.246;2023-05-07T11:54:54;45.01;35.84;58.11;;
1754;Laerm;58380;48.312;9.246;2023-05-07T11:57:24;46.05;39.98;57.57;;
1754;Laerm;58380;48.312;9.246;2023-05-07T12:00:08;49.76;37.33;67.06;;
1754;Laerm;58380;48.312;9.246;2023-05-07T12:02:34;45.47;38.65;55.25;;
1754;Laerm;58380;48.312;9.246;2023-05-07T12:05:00;45.59;36.41;70.47;;
1754;Laerm;58380;48.312;9.246;2023-05-07T12:07:25;47.13;38.07;57.95;;
1754;Laerm;58380;48.312;9.246;2023-05-07T12:09:51;44.51;36.09;64.85;;
1754;Laerm;58380;48.312;9.246;2023-05-07T12:12:17;47.23;38.27;56.77;;
1754;Laerm;58380;48.312;9.246;2023-05-07T12:14:45;46.54;37.51;55.81;;
1754;Laerm;58380;48.312;9.246;2023-05-07T12:17:13;51.88;40.73;70.21;;
1754;Laerm;58380;48.312;9.246;2023-05-07T12:19:41;46.40;38.90;55.91;;
1754;Laerm;58380;48.312;9.246;2023-05-07T12:22:09;44.44;37.28;53.69;;
1754;Laerm;58380;48.312;9.246;2023-05-07T12:24:50;44.38;35.51;54.31;;
1754;Laerm;58380;48.312;9.246;2023-05-07T12:27:21;45.42;37.23;56.54;;
1754;Laerm;58380;48.312;9.246;2023-05-07T12:29:47;47.09;38.34;63.47;;
1754;Laerm;58380;48.312;9.246;2023-05-07T12:32:16;45.77;38.24;55.47;;
1754;Laerm;58380;48.312;9.246;2023-05-07T12:34:42;44.92;37.34;58.22;;
1754;Laerm;58380;48.312;9.246;2023-05-07T12:37:07;46.12;37.55;56.19;;
1754;Laerm;58380;48.312;9.246;2023-05-07T12:39:33;46.96;39.81;58.95;;
1754;Laerm;58380;48.312;9.246;2023-05-07T12:41:59;46.30;37.91;56.46;;
1754;Laerm;58380;48.312;9.246;2023-05-07T12:44:30;46.18;38.39;58.41;;
1754;Laerm;58380;48.312;9.246;2023-05-07T12:46:56;48.47;39.88;70.24;;
1754;Laerm;58380;48.312;9.246;2023-05-07T12:49:23;48.39;39.01;62.60;;
1754;Laerm;58380;48.312;9.246;2023-05-07T12:51:50;45.73;37.71;54.90;;
1754;Laerm;58380;48.312;9.246;2023-05-07T12:54:33;44.72;38.88;52.00;;
1754;Laerm;58380;48.312;9.246;2023-05-07T12:57:08;46.95;40.67;55.14;;
1754;Laerm;58380;48.312;9.246;2023-05-07T12:59:41;45.62;39.55;53.21;;
1754;Laerm;58380;48.312;9.246;2023-05-07T13:02:08;47.23;36.88;60.04;;
1754;Laerm;58380;48.312;9.246;2023-05-07T13:04:34;46.03;37.53;59.60;;
1754;Laerm;58380;48.312;9.246;2023-05-07T13:07:00;46.54;39.07;58.95;;
1754;Laerm;58380;48.312;9.246;2023-05-07T13:09:26;44.99;36.27;52.73;;
1754;Laerm;58380;48.312;9.246;2023-05-07T13:11:52;46.94;38.92;58.41;;
1754;Laerm;58380;48.312;9.246;2023-05-07T13:14:18;47.29;37.89;54.97;;
1754;Laerm;58380;48.312;9.246;2023-05-07T13:16:46;47.67;37.09;68.76;;
1754;Laerm;58380;48.312;9.246;2023-05-07T13:19:12;45.60;34.65;55.83;;
1754;Laerm;58380;48.312;9.246;2023-05-07T13:21:37;47.13;38.53;72.31;;
1754;Laerm;58380;48.312;9.246;2023-05-07T13:24:03;48.97;38.34;80.51;;
1754;Laerm;58380;48.312;9.246;2023-05-07T13:26:31;47.79;40.48;70.77;;
1754;Laerm;58380;48.312;9.246;2023-05-07T13:28:56;48.82;38.40;81.95;;
1754;Laerm;58380;48.312;9.246;2023-05-07T13:31:22;47.04;37.34;74.40;;
1754;Laerm;58380;48.312;9.246;2023-05-07T13:33:48;47.18;38.56;70.98;;
1754;Laerm;58380;48.312;9.246;2023-05-07T13:36:13;46.74;36.76;77.52;;
1754;Laerm;58380;48.312;9.246;2023-05-07T13:38:39;45.98;41.09;62.07;;
1754;Laerm;58380;48.312;9.246;2023-05-07T13:41:05;47.36;39.86;63.65;;
1754;Laerm;58380;48.312;9.246;2023-05-07T13:43:30;45.84;38.60;62.99;;
1754;Laerm;58380;48.312;9.246;2023-05-07T13:45:58;44.00;37.97;56.15;;
1754;Laerm;58380;48.312;9.246;2023-05-07T13:48:24;48.96;36.47;77.85;;
1754;Laerm;58380;48.312;9.246;2023-05-07T13:50:49;59.26;39.57;93.22;;
1754;Laerm;58380;48.312;9.246;2023-05-07T13:53:15;60.72;45.85;89.54;;
1754;Laerm;58380;48.312;9.246;2023-05-07T13:55:43;56.75;47.46;84.73;;
1754;Laerm;58380;48.312;9.246;2023-05-07T13:58:09;59.48;46.69;86.71;;
1754;Laerm;58380;48.312;9.246;2023-05-07T14:00:34;53.45;46.36;77.05;;
1754;Laerm;58380;48.312;9.246;2023-05-07T14:03:00;55.27;46.81;84.42;;
1754;Laerm;58380;48.312;9.246;2023-05-07T14:05:26;55.57;47.75;77.57;;
1754;Laerm;58380;48.312;9.246;2023-05-07T14:07:57;57.01;49.39;88.47;;
1754;Laerm;58380;48.312;9.246;2023-05-07T14:10:25;56.31;48.72;83.94;;
1754;Laerm;58380;48.312;9.246;2023-05-07T14:12:51;56.32;50.04;80.80;;
1754;Laerm;58380;48.312;9.246;2023-05-07T14:15:18;55.88;50.05;77.16;;
1754;Laerm;58380;48.312;9.246;2023-05-07T14:17:44;60.68;52.98;85.80;;
1754;Laerm;58380;48.312;9.246;2023-05-07T14:20:10;58.00;52.33;80.47;;
1754;Laerm;58380;48.312;9.246;2023-05-07T14:22:35;59.56;54.07;84.04;;
1754;Laerm;58380;48.312;9.246;2023-05-07T14:25:01;62.42;54.38;91.84;;
1754;Laerm;58380;48.312;9.246;2023-05-07T14:27:26;60.58;52.34;80.53;;
1754;Laerm;58380;48.312;9.246;2023-05-07T14:29:52;55.42;49.66;77.91;;
1754;Laerm;58380;48.312;9.246;2023-05-07T14:32:18;54.71;48.82;75.60;;
1754;Laerm;58380;48.312;9.246;2023-05-07T14:34:44;60.57;52.00;89.46;;
1754;Laerm;58380;48.312;9.246;2023-05-07T14:37:10;59.31;52.03;86.94;;
1754;Laerm;58380;48.312;9.246;2023-05-07T14:39:35;58.87;51.81;87.62;;
1754;Laerm;58380;48.312;9.246;2023-05-07T14:42:01;59.73;52.31;89.07;;
1754;Laerm;58380;48.312;9.246;2023-05-07T14:44:26;58.37;52.48;83.82;;
1754;Laerm;58380;48.312;9.246;2023-05-07T14:46:52;61.69;53.51;89.63;;
1754;Laerm;58380;48.312;9.246;2023-05-07T14:49:17;63.34;54.59;97.25;;
1754;Laerm;58380;48.312;9.246;2023-05-07T14:51:47;58.95;53.58;87.12;;
1754;Laerm;58380;48.312;9.246;2023-05-07T14:54:13;58.64;51.31;84.81;;
1754;Laerm;58380;48.312;9.246;2023-05-07T14:56:41;55.97;48.86;85.86;;
1754;Laerm;58380;48.312;9.246;2023-05-07T14:59:08;52.86;46.59;75.10;;
1754;Laerm;58380;48.312;9.246;2023-05-07T15:01:35;51.90;45.66;74.64;;
1754;Laerm;58380;48.312;9.246;2023-05-07T15:04:03;51.62;43.04;68.53;;
1754;Laerm;58380;48.312;9.246;2023-05-07T15:06:29;50.82;44.71;64.69;;
1754;Laerm;58380;48.312;9.246;2023-05-07T15:08:54;51.04;45.07;63.46;;
1754;Laerm;58380;48.312;9.246;2023-05-07T15:11:20;47.16;36.88;55.93;;
1754;Laerm;58380;48.312;9.246;2023-05-07T15:13:45;49.15;40.48;58.32;;
1754;Laerm;58380;48.312;9.246;2023-05-07T15:16:10;49.65;40.26;56.25;;
1754;Laerm;58380;48.312;9.246;2023-05-07T15:18:36;50.80;40.13;56.55;;
1754;Laerm;58380;48.312;9.246;2023-05-07T15:21:02;48.11;40.25;55.40;;
1754;Laerm;58380;48.312;9.246;2023-05-07T15:23:27;52.96;37.67;70.54;;
1754;Laerm;58380;48.312;9.246;2023-05-07T15:25:53;47.51;40.48;54.15;;
1754;Laerm;58380;48.312;9.246;2023-05-07T15:28:19;47.97;36.74;58.35;;
1754;Laerm;58380;48.312;9.246;2023-05-07T15:30:44;48.77;40.96;64.59;;
1754;Laerm;58380;48.312;9.246;2023-05-07T15:33:10;59.05;40.84;79.44;;
1754;Laerm;58380;48.312;9.246;2023-05-07T15:35:36;47.54;40.86;56.66;;
1754;Laerm;58380;48.312;9.246;2023-05-07T15:38:02;47.52;37.49;60.05;;
1754;Laerm;58380;48.312;9.246;2023-05-07T15:40:29;47.24;37.35;55.97;;
1754;Laerm;58380;48.312;9.246;2023-05-07T15:42:56;48.39;41.11;56.03;;
1754;Laerm;58380;48.312;9.246;2023-05-07T15:45:23;47.30;37.10;57.13;;
1754;Laerm;58380;48.312;9.246;2023-05-07T15:47:48;49.82;40.31;60.34;;
1754;Laerm;58380;48.312;9.246;2023-05-07T15:50:14;49.01;39.10;61.58;;
1754;Laerm;58380;48.312;9.246;2023-05-07T15:52:39;46.27;37.22;57.11;;
1754;Laerm;58380;48.312;9.246;2023-05-07T15:55:06;46.47;35.77;58.43;;
1754;Laerm;58380;48.312;9.246;2023-05-07T15:57:32;46.91;38.97;56.19;;
1754;Laerm;58380;48.312;9.246;2023-05-07T15:59:59;46.19;38.76;56.92;;
1754;Laerm;58380;48.312;9.246;2023-05-07T16:02:25;49.28;39.55;72.14;;
1754;Laerm;58380;48.312;9.246;2023-05-07T16:04:50;45.87;39.67;54.60;;
1754;Laerm;58380;48.312;9.246;2023-05-07T16:07:16;46.19;39.22;55.37;;
1754;Laerm;58380;48.312;9.246;2023-05-07T16:09:43;45.45;37.35;55.25;;
1754;Laerm;58380;48.312;9.246;2023-05-07T16:12:09;44.84;35.64;56.59;;
1754;Laerm;58380;48.312;9.246;2023-05-07T16:14:36;51.72;39.04;75.06;;
1754;Laerm;58380;48.312;9.246;2023-05-07T16:17:02;54.34;36.27;71.93;;
1754;Laerm;58380;48.312;9.246;2023-05-07T16:19:27;44.15;34.51;51.93;;
1754;Laerm;58380;48.312;9.246;2023-05-07T16:21:53;46.41;35.00;55.40;;
1754;Laerm;58380;48.312;9.246;2023-05-07T16:24:19;49.81;35.80;66.16;;
1754;Laerm;58380;48.312;9.246;2023-05-07T16:26:45;47.50;34.15;64.45;;
1754;Laerm;58380;48.312;9.246;2023-05-07T16:29:10;45.34;36.76;54.35;;
1754;Laerm;58380;48.312;9.246;2023-05-07T16:31:35;46.51;37.76;54.02;;
1754;Laerm;58380;48.312;9.246;2023-05-07T16:34:01;45.75;38.29;53.10;;
1754;Laerm;58380;48.312;9.246;2023-05-07T16:36:27;47.72;39.13;55.74;;
1754;Laerm;58380;48.312;9.246;2023-05-07T16:38:53;45.47;37.08;59.44;;
1754;Laerm;58380;48.312;9.246;2023-05-07T16:41:19;46.40;34.93;55.69;;
1754;Laerm;58380;48.312;9.246;2023-05-07T16:43:46;48.61;36.86;60.84;;
1754;Laerm;58380;48.312;9.246;2023-05-07T16:46:11;50.74;40.00;64.02;;
1754;Laerm;58380;48.312;9.246;2023-05-07T16:48:36;50.21;38.44;63.17;;
1754;Laerm;58380;48.312;9.246;2023-05-07T16:51:02;47.60;36.32;64.31;;
1754;Laerm;58380;48.312;9.246;2023-05-07T16:53:28;46.64;37.34;58.14;;
1754;Laerm;58380;48.312;9.246;2023-05-07T16:55:54;46.12;38.00;56.34;;
1754;Laerm;58380;48.312;9.246;2023-05-07T16:58:21;45.34;33.49;58.54;;
1754;Laerm;58380;48.312;9.246;2023-05-07T17:00:47;45.05;37.68;55.05;;
1754;Laerm;58380;48.312;9.246;2023-05-07T17:03:13;46.79;35.76;68.63;;
1754;Laerm;58380;48.312;9.246;2023-05-07T17:05:38;46.22;37.58;63.10;;
1754;Laerm;58380;48.312;9.246;2023-05-07T17:08:04;47.16;39.42;62.15;;
1754;Laerm;58380;48.312;9.246;2023-05-07T17:10:30;47.73;37.70;59.75;;
1754;Laerm;58380;48.312;9.246;2023-05-07T17:12:55;49.75;39.53;65.99;;
1754;Laerm;58380;48.312;9.246;2023-05-07T17:15:20;49.56;40.53;60.67;;
1754;Laerm;58380;48.312;9.246;2023-05-07T17:17:46;50.10;42.52;58.16;;
1754;Laerm;58380;48.312;9.246;2023-05-07T17:20:12;48.45;40.32;58.98;;
1754;Laerm;58380;48.312;9.246;2023-05-07T17:22:38;47.39;37.65;59.35;;
1754;Laerm;58380;48.312;9.246;2023-05-07T17:25:03;48.01;38.72;59.67;;
1754;Laerm;58380;48.312;9.246;2023-05-07T17:27:31;51.96;36.56;74.73;;
1754;Laerm;58380;48.312;9.246;2023-05-07T17:29:58;49.98;38.93;61.10;;
1754;Laerm;58380;48.312;9.246;2023-05-07T17:32:23;47.96;37.57;58.59;;
1754;Laerm;58380;48.312;9.246;2023-05-07T17:34:49;48.72;39.29;56.41;;
1754;Laerm;58380;48.312;9.246;2023-05-07T17:37:15;47.00;35.10;58.20;;
1754;Laerm;58380;48.312;9.246;2023-05-07T17:39:40;52.03;42.13;62.94;;
1754;Laerm;58380;48.312;9.246;2023-05-07T17:42:06;49.24;34.29;62.32;;
1754;Laerm;58380;48.312;9.246;2023-05-07T17:44:31;46.42;37.19;57.16;;
1754;Laerm;58380;48.312;9.246;2023-05-07T17:46:58;46.09;36.72;59.27;;
1754;Laerm;58380;48.312;9.246;2023-05-07T17:49:23;48.68;35.17;60.66;;
1754;Laerm;58380;48.312;9.246;2023-05-07T17:51:49;48.10;38.21;63.67;;
1754;Laerm;58380;48.312;9.246;2023-05-07T17:54:14;46.62;38.19;64.54;;
1754;Laerm;58380;48.312;9.246;2023-05-07T17:56:39;52.86;39.71;78.06;;
1754;Laerm;58380;48.312;9.246;2023-05-07T17:59:05;54.53;44.73;85.97;;
1754;Laerm;58380;48.312;9.246;2023-05-07T18:01:30;51.69;43.97;74.92;;
1754;Laerm;58380;48.312;9.246;2023-05-07T18:03:59;49.84;41.40;61.12;;
1754;Laerm;58380;48.312;9.246;2023-05-07T18:06:25;50.88;42.41;69.52;;
1754;Laerm;58380;48.312;9.246;2023-05-07T18:08:50;51.22;41.68;71.57;;
1754;Laerm;58380;48.312;9.246;2023-05-07T18:11:16;49.70;37.30;63.72;;
1754;Laerm;58380;48.312;9.246;2023-05-07T18:13:41;49.23;37.86;74.47;;
1754;Laerm;58380;48.312;9.246;2023-05-07T18:16:08;46.53;37.52;64.39;;
1754;Laerm;58380;48.312;9.246;2023-05-07T18:18:41;46.15;37.03;70.95;;
1754;Laerm;58380;48.312;9.246;2023-05-07T18:21:06;45.33;35.97;60.38;;
1754;Laerm;58380;48.312;9.246;2023-05-07T18:23:34;45.14;34.28;56.91;;
1754;Laerm;58380;48.312;9.246;2023-05-07T18:26:01;46.73;38.34;58.55;;
1754;Laerm;58380;48.312;9.246;2023-05-07T18:28:26;45.34;37.13;53.80;;
1754;Laerm;58380;48.312;9.246;2023-05-07T18:30:52;46.63;38.10;65.67;;
1754;Laerm;58380;48.312;9.246;2023-05-07T18:33:17;45.68;35.15;58.31;;
1754;Laerm;58380;48.312;9.246;2023-05-07T18:35:43;47.77;40.69;57.92;;
1754;Laerm;58380;48.312;9.246;2023-05-07T18:38:09;46.26;38.77;66.54;;
1754;Laerm;58380;48.312;9.246;2023-05-07T18:40:35;46.53;37.91;69.19;;
1754;Laerm;58380;48.312;9.246;2023-05-07T18:43:00;47.97;36.52;60.40;;
1754;Laerm;58380;48.312;9.246;2023-05-07T18:45:33;46.37;34.74;61.27;;
1754;Laerm;58380;48.312;9.246;2023-05-07T18:55:36;45.99;37.84;55.80;;
1754;Laerm;58380;48.312;9.246;2023-05-07T18:58:01;43.72;33.15;57.98;;
1754;Laerm;58380;48.312;9.246;2023-05-07T19:00:32;46.47;38.51;56.53;;
1754;Laerm;58380;48.312;9.246;2023-05-07T19:02:57;43.12;33.71;55.80;;
1754;Laerm;58380;48.312;9.246;2023-05-07T19:05:23;44.65;34.13;54.34;;
1754;Laerm;58380;48.312;9.246;2023-05-07T19:07:49;44.35;34.17;52.75;;
1754;Laerm;58380;48.312;9.246;2023-05-07T19:10:15;43.00;32.09;55.25;;
1754;Laerm;58380;48.312;9.246;2023-05-07T19:12:41;41.98;30.64;56.06;;
1754;Laerm;58380;48.312;9.246;2023-05-07T19:15:07;43.21;33.25;75.66;;
1754;Laerm;58380;48.312;9.246;2023-05-07T19:17:33;42.64;33.95;52.69;;
1754;Laerm;58380;48.312;9.246;2023-05-07T19:19:59;40.73;33.69;49.23;;
1754;Laerm;58380;48.312;9.246;2023-05-07T19:22:25;40.98;31.97;49.99;;
1754;Laerm;58380;48.312;9.246;2023-05-07T19:24:51;45.34;35.92;52.46;;
1754;Laerm;58380;48.312;9.246;2023-05-07T19:27:17;38.86;31.54;47.16;;
1754;Laerm;58380;48.312;9.246;2023-05-07T19:29:42;37.44;31.78;47.16;;
1754;Laerm;58380;48.312;9.246;2023-05-07T19:32:08;41.89;31.81;49.81;;
1754;Laerm;58380;48.312;9.246;2023-05-07T19:34:33;39.97;31.56;51.22;;
1754;Laerm;58380;48.312;9.246;2023-05-07T19:36:59;42.73;32.91;50.58;;
1754;Laerm;58380;48.312;9.246;2023-05-07T19:39:25;39.74;30.93;49.44;;
1754;Laerm;58380;48.312;9.246;2023-05-07T19:41:50;39.56;32.57;48.50;;
1754;Laerm;58380;48.312;9.246;2023-05-07T19:44:16;41.27;31.55;48.40;;
1754;Laerm;58380;48.312;9.246;2023-05-07T19:46:41;41.36;31.58;51.33;;
1754;Laerm;58380;48.312;9.246;2023-05-07T19:49:10;42.44;32.39;55.47;;
1754;Laerm;58380;48.312;9.246;2023-05-07T19:51:35;41.94;31.90;48.72;;
1754;Laerm;58380;48.312;9.246;2023-05-07T19:54:01;40.93;34.43;54.27;;
1754;Laerm;58380;48.312;9.246;2023-05-07T19:56:27;46.25;36.25;58.64;;
1754;Laerm;58380;48.312;9.246;2023-05-07T19:58:52;40.67;32.15;48.61;;
1754;Laerm;58380;48.312;9.246;2023-05-07T20:01:18;42.13;32.12;53.98;;
1754;Laerm;58380;48.312;9.246;2023-05-07T20:03:44;43.75;34.32;52.31;;
1754;Laerm;58380;48.312;9.246;2023-05-07T20:06:09;40.40;31.96;49.03;;
1754;Laerm;58380;48.312;9.246;2023-05-07T20:08:35;40.66;33.70;51.57;;
1754;Laerm;58380;48.312;9.246;2023-05-07T20:11:00;40.20;32.41;48.09;;
1754;Laerm;58380;48.312;9.246;2023-05-07T20:13:26;41.81;32.45;52.54;;
1754;Laerm;58380;48.312;9.246;2023-05-07T20:15:59;40.95;32.30;51.01;;
1754;Laerm;58380;48.312;9.246;2023-05-07T20:18:27;40.25;31.81;50.54;;
1754;Laerm;58380;48.312;9.246;2023-05-07T20:20:53;41.07;33.07;48.81;;
1754;Laerm;58380;48.312;9.246;2023-05-07T20:23:18;40.26;33.30;49.56;;
1754;Laerm;58380;48.312;9.246;2023-05-07T20:25:45;42.53;34.16;63.33;;
1754;Laerm;58380;48.312;9.246;2023-05-07T20:28:11;40.27;32.72;49.87;;
1754;Laerm;58380;48.312;9.246;2023-05-07T20:30:36;36.66;31.54;48.67;;
1754;Laerm;58380;48.312;9.246;2023-05-07T20:33:01;38.33;32.34;48.29;;
1754;Laerm;58380;48.312;9.246;2023-05-07T20:35:29;39.02;31.63;48.97;;
1754;Laerm;58380;48.312;9.246;2023-05-07T20:37:55;37.50;31.96;47.98;;
1754;Laerm;58380;48.312;9.246;2023-05-07T20:40:21;41.30;33.35;50.63;;
1754;Laerm;58380;48.312;9.246;2023-05-07T20:42:46;33.78;31.24;46.92;;
1754;Laerm;58380;48.312;9.246;2023-05-07T20:45:12;42.21;33.22;51.78;;
1754;Laerm;58380;48.312;9.246;2023-05-07T20:47:37;44.83;32.74;54.40;;
1754;Laerm;58380;48.312;9.246;2023-05-07T20:50:03;42.32;32.19;52.72;;
1754;Laerm;58380;48.312;9.246;2023-05-07T20:52:28;41.75;32.32;52.18;;
